Time;durP1;ratioP1;P1;durP2;ratioP2;P2;SDS_P1;SDS_P2;PMS_P1;PMS_P2;Temp;Humidity;BMP_temperature;BMP_pressure;BME280_temperature;BME280_humidity;BME280_pressure;Samples;Min_cycle;Max_cycle;Signal;HPM_P1;HPM_P2
2023/09/28 00:01:03;;;;;;;8.03;5.80;;;;;;;;;;5035647;28;20215;-80
2023/09/28 00:03:29;;;;;;;7.00;5.20;;;;;;;;;;5037460;28;20172;-80
2023/09/28 00:05:55;;;;;;;7.50;5.10;;;;;;;;;;5047335;28;20191;-79
2023/09/28 00:08:21;;;;;;;6.67;4.93;;;;;;;;;;5023930;28;20257;-80
2023/09/28 00:10:47;;;;;;;5.93;5.03;;;;;;;;;;5037467;28;20207;-78
2023/09/28 00:13:13;;;;;;;7.33;4.60;;;;;;;;;;5022133;28;20204;-78
2023/09/28 00:15:39;;;;;;;5.20;4.70;;;;;;;;;;5022239;28;20180;-78
2023/09/28 00:18:05;;;;;;;5.90;4.73;;;;;;;;;;5066237;28;20259;-77
2023/09/28 00:20:31;;;;;;;5.90;4.37;;;;;;;;;;5018642;28;20212;-78
2023/09/28 00:22:57;;;;;;;7.87;4.90;;;;;;;;;;5036981;28;20230;-78
2023/09/28 00:25:24;;;;;;;5.53;4.80;;;;;;;;;;5038275;28;20251;-77
2023/09/28 00:27:55;;;;;;;5.73;4.60;;;;;;;;;;5021567;28;20190;-77
2023/09/28 00:30:22;;;;;;;7.63;4.80;;;;;;;;;;5038296;28;20180;-77
2023/09/28 00:32:52;;;;;;;5.33;4.63;;;;;;;;;;5018518;28;20284;-78
2023/09/28 00:35:18;;;;;;;6.23;4.90;;;;;;;;;;5037426;28;20272;-77
2023/09/28 00:37:44;;;;;;;6.03;4.60;;;;;;;;;;5034703;28;20263;-77
2023/09/28 00:42:56;;;;;;;6.70;4.70;;;;;;;;;;5040917;28;20246;-77
2023/09/28 00:45:23;;;;;;;5.63;4.30;;;;;;;;;;5026153;28;20230;-77
2023/09/28 00:47:51;;;;;;;5.70;4.37;;;;;;;;;;5018362;28;20193;-78
2023/09/28 00:50:17;;;;;;;7.17;4.63;;;;;;;;;;5045308;28;20243;-77
2023/09/28 00:52:47;;;;;;;5.47;4.43;;;;;;;;;;5028865;28;20194;-77
2023/09/28 00:55:19;;;;;;;5.47;4.40;;;;;;;;;;5038591;28;20180;-77
2023/09/28 00:57:46;;;;;;;4.73;4.23;;;;;;;;;;5028405;28;20224;-77
2023/09/28 01:00:18;;;;;;;6.87;4.90;;;;;;;;;;5001633;28;20280;-77
2023/09/28 01:02:51;;;;;;;5.30;4.70;;;;;;;;;;5033094;28;20188;-77
2023/09/28 01:05:22;;;;;;;6.50;4.67;;;;;;;;;;5042182;28;20196;-77
2023/09/28 01:07:48;;;;;;;6.03;4.70;;;;;;;;;;5053538;28;20172;-77
2023/09/28 01:10:20;;;;;;;5.97;4.53;;;;;;;;;;5034188;28;20268;-77
2023/09/28 01:12:48;;;;;;;8.33;4.57;;;;;;;;;;5034941;28;20204;-77
2023/09/28 01:15:14;;;;;;;5.77;4.20;;;;;;;;;;5027443;28;20199;-77
2023/09/28 01:17:41;;;;;;;5.70;4.87;;;;;;;;;;5017885;28;20279;-79
2023/09/28 01:20:18;;;;;;;5.70;4.73;;;;;;;;;;5014286;28;20185;-80
2023/09/28 01:22:50;;;;;;;7.50;4.53;;;;;;;;;;5015492;28;20200;-80
2023/09/28 01:25:18;;;;;;;7.17;4.67;;;;;;;;;;5014466;28;20208;-79
2023/09/28 01:27:48;;;;;;;7.73;4.90;;;;;;;;;;5030101;28;20210;-79
2023/09/28 01:30:15;;;;;;;5.00;4.50;;;;;;;;;;5033837;28;20242;-80
2023/09/28 01:32:42;;;;;;;5.70;4.70;;;;;;;;;;5033095;28;20215;-80
2023/09/28 01:35:08;;;;;;;5.10;4.63;;;;;;;;;;5033183;28;20219;-77
2023/09/28 01:37:49;;;;;;;5.10;4.50;;;;;;;;;;5034809;28;20181;-77
2023/09/28 01:40:16;;;;;;;5.60;4.63;;;;;;;;;;5029370;28;20239;-77
2023/09/28 01:42:43;;;;;;;6.43;4.63;;;;;;;;;;5036506;28;20220;-77
2023/09/28 01:45:09;;;;;;;6.47;4.50;;;;;;;;;;5035790;28;20180;-77
2023/09/28 01:47:35;;;;;;;5.00;4.50;;;;;;;;;;5033209;28;20184;-77
2023/09/28 01:50:03;;;;;;;4.87;4.40;;;;;;;;;;5032976;28;20216;-77
2023/09/28 01:52:29;;;;;;;6.43;4.77;;;;;;;;;;5012371;28;20193;-77
2023/09/28 01:54:55;;;;;;;6.13;4.90;;;;;;;;;;5035018;28;20255;-77
2023/09/28 01:57:21;;;;;;;6.90;4.80;;;;;;;;;;5015581;28;20253;-77
2023/09/28 01:59:47;;;;;;;7.07;4.60;;;;;;;;;;5016987;28;20196;-77
2023/09/28 02:02:16;;;;;;;6.33;4.80;;;;;;;;;;5031204;28;20191;-77
2023/09/28 02:04:42;;;;;;;6.27;4.80;;;;;;;;;;5022258;28;20197;-77
2023/09/28 02:07:08;;;;;;;7.17;4.60;;;;;;;;;;5019143;28;20259;-77
2023/09/28 02:09:34;;;;;;;5.43;4.57;;;;;;;;;;5013751;28;20209;-80
2023/09/28 02:12:01;;;;;;;6.30;5.07;;;;;;;;;;5036909;28;20211;-80
2023/09/28 02:14:27;;;;;;;5.80;5.00;;;;;;;;;;5030344;28;20275;-77
2023/09/28 02:16:53;;;;;;;5.87;5.03;;;;;;;;;;5017147;28;20177;-77
2023/09/28 02:19:19;;;;;;;5.97;4.73;;;;;;;;;;5032319;28;20283;-77
2023/09/28 02:21:47;;;;;;;8.40;5.20;;;;;;;;;;5013092;28;20232;-77
2023/09/28 02:24:13;;;;;;;5.50;4.93;;;;;;;;;;5012827;28;20244;-77
2023/09/28 02:26:39;;;;;;;7.20;5.00;;;;;;;;;;5026285;28;20184;-77
2023/09/28 02:29:05;;;;;;;5.87;5.37;;;;;;;;;;5031333;28;20247;-77
2023/09/28 02:31:31;;;;;;;8.83;5.10;;;;;;;;;;5014774;28;20188;-77
2023/09/28 02:33:57;;;;;;;6.70;4.80;;;;;;;;;;5032617;28;20185;-77
2023/09/28 02:36:24;;;;;;;7.53;5.23;;;;;;;;;;5025452;28;20198;-77
2023/09/28 02:38:50;;;;;;;8.73;5.47;;;;;;;;;;5036796;28;20242;-77
2023/09/28 02:41:20;;;;;;;7.23;4.77;;;;;;;;;;5032284;28;20234;-77
2023/09/28 02:43:47;;;;;;;6.10;4.97;;;;;;;;;;5024140;28;20189;-77
2023/09/28 02:46:13;;;;;;;8.13;5.03;;;;;;;;;;5024310;28;20199;-77
2023/09/28 02:48:40;;;;;;;5.43;4.87;;;;;;;;;;5055286;28;20216;-79
2023/09/28 02:51:07;;;;;;;6.07;5.47;;;;;;;;;;5027510;28;20189;-79
2023/09/28 02:53:35;;;;;;;6.53;5.40;;;;;;;;;;5019986;28;20195;-79
2023/09/28 02:56:01;;;;;;;6.30;5.67;;;;;;;;;;5036442;28;20176;-79
2023/09/28 02:58:27;;;;;;;6.90;5.30;;;;;;;;;;5019746;28;20233;-79
2023/09/28 03:00:55;;;;;;;7.03;5.57;;;;;;;;;;5036072;28;20277;-79
2023/09/28 03:03:22;;;;;;;6.03;5.33;;;;;;;;;;5020749;28;20192;-79
2023/09/28 03:05:48;;;;;;;5.57;5.07;;;;;;;;;;5019959;28;20188;-79
2023/09/28 03:08:14;;;;;;;7.23;5.40;;;;;;;;;;5034643;28;20216;-79
2023/09/28 03:10:41;;;;;;;5.93;5.37;;;;;;;;;;5028178;28;20181;-79
2023/09/28 03:13:08;;;;;;;6.83;5.20;;;;;;;;;;5019379;28;20188;-80
2023/09/28 03:15:34;;;;;;;8.20;5.47;;;;;;;;;;5047753;28;20181;-77
2023/09/28 03:18:00;;;;;;;6.83;5.53;;;;;;;;;;5033177;28;20211;-77
2023/09/28 03:20:27;;;;;;;6.77;5.33;;;;;;;;;;5015812;28;20190;-77
2023/09/28 03:22:53;;;;;;;7.33;5.20;;;;;;;;;;5017488;28;20287;-77
2023/09/28 03:25:21;;;;;;;6.97;5.00;;;;;;;;;;5043569;28;20227;-77
2023/09/28 03:27:54;;;;;;;5.87;5.27;;;;;;;;;;5035663;28;20181;-77
2023/09/28 03:30:21;;;;;;;6.17;5.13;;;;;;;;;;5035225;28;20191;-77
2023/09/28 03:32:47;;;;;;;7.57;5.40;;;;;;;;;;5015890;28;20197;-80
2023/09/28 03:35:14;;;;;;;6.57;5.20;;;;;;;;;;5025001;28;20189;-80
2023/09/28 03:37:41;;;;;;;7.37;5.30;;;;;;;;;;5019395;28;20223;-77
2023/09/28 03:40:11;;;;;;;5.90;5.30;;;;;;;;;;5018589;28;20247;-77
2023/09/28 03:42:41;;;;;;;7.93;5.30;;;;;;;;;;5020835;28;20197;-77
2023/09/28 03:45:08;;;;;;;6.97;5.50;;;;;;;;;;5025644;28;20188;-77
2023/09/28 03:47:39;;;;;;;6.97;5.27;;;;;;;;;;5055098;28;20188;-77
2023/09/28 03:50:06;;;;;;;7.17;5.13;;;;;;;;;;5052327;28;20214;-77
2023/09/28 03:52:34;;;;;;;10.07;5.60;;;;;;;;;;5021368;28;20185;-77
2023/09/28 03:55:00;;;;;;;8.83;5.60;;;;;;;;;;5025351;28;20223;-77
2023/09/28 03:57:26;;;;;;;7.17;5.37;;;;;;;;;;5047483;28;20243;-80
2023/09/28 03:59:52;;;;;;;8.83;5.53;;;;;;;;;;5038843;28;20253;-80
2023/09/28 04:02:18;;;;;;;6.60;5.73;;;;;;;;;;5018776;28;20191;-80
2023/09/28 04:04:44;;;;;;;8.37;5.77;;;;;;;;;;5052410;28;20263;-80
2023/09/28 04:07:11;;;;;;;8.97;5.93;;;;;;;;;;5036119;28;20184;-77
2023/09/28 04:09:37;;;;;;;7.93;5.43;;;;;;;;;;5046565;28;20212;-77
2023/09/28 04:12:03;;;;;;;6.60;5.60;;;;;;;;;;5021516;28;20192;-77
2023/09/28 04:14:29;;;;;;;8.63;6.20;;;;;;;;;;5019843;28;20211;-77
2023/09/28 04:16:55;;;;;;;9.07;6.20;;;;;;;;;;5021765;28;20176;-77
2023/09/28 04:19:21;;;;;;;10.80;6.87;;;;;;;;;;5018551;28;20184;-77
2023/09/28 04:21:48;;;;;;;8.37;6.50;;;;;;;;;;5035383;28;20187;-77
2023/09/28 04:24:14;;;;;;;7.47;6.53;;;;;;;;;;5037002;28;20191;-77
2023/09/28 04:26:40;;;;;;;10.00;6.53;;;;;;;;;;5023640;28;20287;-77
2023/09/28 04:29:07;;;;;;;12.30;6.87;;;;;;;;;;5021515;28;20219;-77
2023/09/28 04:31:33;;;;;;;12.27;7.23;;;;;;;;;;5018163;28;20284;-79
2023/09/28 04:33:59;;;;;;;9.83;7.30;;;;;;;;;;5051140;28;20207;-79
2023/09/28 04:36:25;;;;;;;10.53;6.93;;;;;;;;;;5037386;28;20215;-79
2023/09/28 04:38:51;;;;;;;13.07;7.80;;;;;;;;;;5037578;28;20210;-80
2023/09/28 04:41:17;;;;;;;13.00;7.43;;;;;;;;;;5037280;28;20234;-79
2023/09/28 04:43:43;;;;;;;12.73;7.40;;;;;;;;;;5011695;28;20176;-80
2023/09/28 04:46:10;;;;;;;10.93;7.43;;;;;;;;;;5012914;28;20284;-79
2023/09/28 04:48:36;;;;;;;17.27;7.83;;;;;;;;;;5018446;28;20200;-80
2023/09/28 04:51:03;;;;;;;12.40;7.30;;;;;;;;;;5022986;28;20192;-79
2023/09/28 04:53:29;;;;;;;10.53;7.17;;;;;;;;;;5037828;28;20263;-79
2023/09/28 04:55:55;;;;;;;10.73;7.13;;;;;;;;;;5035479;28;20214;-80
2023/09/28 04:58:21;;;;;;;11.40;7.30;;;;;;;;;;5043809;28;20233;-79
2023/09/28 05:00:47;;;;;;;11.93;8.00;;;;;;;;;;5014563;28;20177;-79
2023/09/28 05:03:13;;;;;;;10.97;7.03;;;;;;;;;;5014251;28;20178;-80
2023/09/28 05:05:39;;;;;;;8.97;6.83;;;;;;;;;;5014017;28;20189;-80
2023/09/28 05:08:06;;;;;;;9.57;7.37;;;;;;;;;;5014162;28;20181;-79
2023/09/28 05:10:32;;;;;;;9.97;7.40;;;;;;;;;;5017428;28;20189;-80
2023/09/28 05:12:58;;;;;;;9.87;7.57;;;;;;;;;;5014403;28;20228;-77
2023/09/28 05:15:24;;;;;;;10.33;7.47;;;;;;;;;;5014246;28;20179;-77
2023/09/28 05:17:50;;;;;;;11.47;7.57;;;;;;;;;;5014940;28;20240;-77
2023/09/28 05:20:16;;;;;;;9.90;7.53;;;;;;;;;;5014078;28;20255;-77
2023/09/28 05:22:43;;;;;;;10.20;7.40;;;;;;;;;;5030356;28;20177;-77
2023/09/28 05:25:09;;;;;;;9.73;8.33;;;;;;;;;;5013893;28;20215;-77
2023/09/28 05:27:36;;;;;;;8.67;7.77;;;;;;;;;;5017032;28;20185;-79
2023/09/28 05:30:03;;;;;;;11.30;7.50;;;;;;;;;;5034470;28;20201;-80
2023/09/28 05:32:29;;;;;;;10.47;8.20;;;;;;;;;;5033629;28;20184;-80
2023/09/28 05:34:55;;;;;;;11.43;8.37;;;;;;;;;;5029939;28;20181;-79
2023/09/28 05:37:21;;;;;;;10.27;8.43;;;;;;;;;;5013654;28;20204;-79
2023/09/28 05:39:47;;;;;;;11.07;8.37;;;;;;;;;;4997471;28;20181;-79
2023/09/28 05:42:13;;;;;;;10.90;8.47;;;;;;;;;;5013643;28;20197;-79
2023/09/28 05:44:39;;;;;;;10.43;8.40;;;;;;;;;;5014968;28;20235;-79
2023/09/28 05:47:05;;;;;;;10.93;8.37;;;;;;;;;;5012579;28;20260;-77
2023/09/28 05:49:32;;;;;;;10.00;7.90;;;;;;;;;;5013723;28;20232;-77
2023/09/28 05:51:58;;;;;;;10.77;8.37;;;;;;;;;;5009205;28;20215;-77
2023/09/28 05:54:26;;;;;;;11.00;8.10;;;;;;;;;;5023665;28;20187;-77
2023/09/28 05:56:52;;;;;;;11.53;8.10;;;;;;;;;;5034057;28;20316;-77
2023/09/28 05:59:18;;;;;;;11.87;8.37;;;;;;;;;;5032667;28;20191;-77
2023/09/28 06:01:44;;;;;;;15.37;8.33;;;;;;;;;;5029241;28;20263;-81
2023/09/28 06:04:11;;;;;;;11.40;8.27;;;;;;;;;;5013322;28;20177;-78
2023/09/28 06:06:38;;;;;;;14.60;8.10;;;;;;;;;;4996910;28;20181;-78
2023/09/28 06:09:04;;;;;;;9.87;7.83;;;;;;;;;;5022398;28;20208;-77
2023/09/28 06:11:30;;;;;;;14.83;8.00;;;;;;;;;;5073468;22;20323;-78
2023/09/28 06:13:56;;;;;;;14.07;8.13;;;;;;;;;;5019996;28;20182;-77
2023/09/28 06:16:25;;;;;;;12.73;8.67;;;;;;;;;;4999504;28;20182;-81
2023/09/28 06:18:52;;;;;;;12.63;8.50;;;;;;;;;;5001440;28;20308;-80
2023/09/28 06:21:18;;;;;;;10.47;7.73;;;;;;;;;;5000097;28;20296;-80
2023/09/28 06:23:44;;;;;;;12.80;8.37;;;;;;;;;;4983858;28;20284;-80
2023/09/28 06:26:10;;;;;;;14.70;7.90;;;;;;;;;;4999994;28;20177;-81
2023/09/28 06:28:36;;;;;;;12.07;8.20;;;;;;;;;;4983338;28;20209;-81
2023/09/28 06:31:02;;;;;;;12.37;8.17;;;;;;;;;;4999774;28;20262;-81
2023/09/28 06:33:28;;;;;;;15.67;8.23;;;;;;;;;;4999669;28;20170;-81
2023/09/28 06:35:54;;;;;;;15.37;7.83;;;;;;;;;;4999791;28;20177;-77
2023/09/28 06:38:20;;;;;;;17.13;7.67;;;;;;;;;;4983756;28;20182;-77
2023/09/28 06:40:48;;;;;;;15.83;7.60;;;;;;;;;;4999630;28;20173;-77
2023/09/28 06:43:14;;;;;;;14.03;6.93;;;;;;;;;;4999798;28;20242;-77
2023/09/28 06:45:41;;;;;;;14.10;7.60;;;;;;;;;;4984907;28;20185;-77
2023/09/28 06:48:07;;;;;;;14.87;7.40;;;;;;;;;;4993253;28;20181;-78
2023/09/28 06:50:34;;;;;;;13.10;6.90;;;;;;;;;;5005545;28;20178;-78
2023/09/28 06:53:00;;;;;;;14.20;6.73;;;;;;;;;;5017025;28;20176;-81
2023/09/28 06:55:26;;;;;;;12.97;6.97;;;;;;;;;;4988035;28;20174;-81
2023/09/28 06:57:52;;;;;;;14.73;6.40;;;;;;;;;;4995902;28;20197;-81
2023/09/28 07:00:19;;;;;;;15.27;6.53;;;;;;;;;;5002580;28;20193;-81
2023/09/28 07:02:47;;;;;;;13.00;6.20;;;;;;;;;;5003283;28;20258;-81
2023/09/28 07:05:16;;;;;;;14.00;6.40;;;;;;;;;;5030665;28;20201;-81
2023/09/28 07:07:46;;;;;;;18.43;6.37;;;;;;;;;;4990270;28;20185;-81
2023/09/28 07:10:15;;;;;;;18.20;6.03;;;;;;;;;;5002902;28;20305;-81
2023/09/28 07:12:41;;;;;;;14.30;6.67;;;;;;;;;;5010796;28;20259;-82
2023/09/28 07:15:08;;;;;;;15.20;6.50;;;;;;;;;;5002132;28;20185;-81
2023/09/28 07:17:34;;;;;;;14.93;6.17;;;;;;;;;;5014433;28;20324;-81
2023/09/28 07:20:00;;;;;;;19.27;6.13;;;;;;;;;;4983099;28;20213;-81
2023/09/28 07:22:26;;;;;;;14.30;5.50;;;;;;;;;;4998329;28;20197;-81
2023/09/28 07:24:53;;;;;;;18.77;5.97;;;;;;;;;;4986800;28;20193;-78
2023/09/28 07:27:19;;;;;;;19.97;5.67;;;;;;;;;;5009635;28;20186;-78
2023/09/28 07:29:45;;;;;;;15.50;5.37;;;;;;;;;;4989374;28;20227;-78
2023/09/28 07:32:11;;;;;;;19.43;5.73;;;;;;;;;;4986363;28;20178;-78
2023/09/28 07:34:37;;;;;;;19.13;6.00;;;;;;;;;;4993675;28;20193;-77
2023/09/28 07:37:03;;;;;;;23.67;6.13;;;;;;;;;;4997312;28;20237;-78
2023/09/28 07:39:29;;;;;;;19.37;5.70;;;;;;;;;;4989874;28;20205;-77
2023/09/28 07:41:55;;;;;;;20.57;5.80;;;;;;;;;;4985848;28;20225;-82
2023/09/28 07:44:21;;;;;;;19.40;5.43;;;;;;;;;;5004961;28;20229;-81
2023/09/28 07:46:48;;;;;;;20.37;5.90;;;;;;;;;;4996957;28;20174;-82
2023/09/28 07:49:14;;;;;;;21.23;5.33;;;;;;;;;;4997321;28;20232;-82
2023/09/28 07:51:40;;;;;;;23.40;5.97;;;;;;;;;;4979346;28;20193;-81
2023/09/28 07:54:07;;;;;;;23.97;6.10;;;;;;;;;;4979458;28;20190;-78
2023/09/28 07:56:33;;;;;;;25.77;6.17;;;;;;;;;;5012188;28;20186;-78
2023/09/28 07:59:01;;;;;;;23.50;5.90;;;;;;;;;;4996679;28;20180;-81
2023/09/28 08:01:27;;;;;;;24.07;5.30;;;;;;;;;;5011798;28;20178;-82
2023/09/28 08:03:53;;;;;;;20.50;5.63;;;;;;;;;;4995652;28;20188;-82
2023/09/28 08:06:20;;;;;;;19.87;5.27;;;;;;;;;;4995710;28;20197;-82
2023/09/28 08:08:46;;;;;;;23.17;6.50;;;;;;;;;;5010952;28;20217;-82
2023/09/28 08:11:12;;;;;;;22.33;5.50;;;;;;;;;;4979009;28;20226;-82
2023/09/28 08:13:38;;;;;;;29.20;5.90;;;;;;;;;;4978887;28;20185;-82
2023/09/28 08:16:05;;;;;;;26.77;6.23;;;;;;;;;;4995622;28;20182;-82
2023/09/28 08:18:31;;;;;;;23.67;6.07;;;;;;;;;;4979479;28;20186;-81
2023/09/28 08:20:57;;;;;;;24.07;6.20;;;;;;;;;;4995166;28;20192;-82
2023/09/28 08:23:23;;;;;;;25.33;5.70;;;;;;;;;;4979952;28;20182;-82
2023/09/28 08:25:49;;;;;;;25.17;5.87;;;;;;;;;;4995439;28;20190;-82
2023/09/28 08:28:15;;;;;;;21.17;5.60;;;;;;;;;;4978221;28;20244;-82
2023/09/28 08:30:41;;;;;;;19.43;5.57;;;;;;;;;;4979384;28;20189;-83
2023/09/28 08:33:08;;;;;;;23.13;5.83;;;;;;;;;;4995203;28;20297;-81
2023/09/28 08:35:35;;;;;;;21.17;5.73;;;;;;;;;;4978255;28;20198;-81
2023/09/28 08:38:03;;;;;;;23.40;5.80;;;;;;;;;;4976028;28;20179;-81
2023/09/28 08:40:30;;;;;;;21.07;4.97;;;;;;;;;;4992139;28;20208;-81
2023/09/28 08:42:59;;;;;;;17.43;4.90;;;;;;;;;;4975857;28;20182;-81
2023/09/28 08:45:29;;;;;;;23.40;5.20;;;;;;;;;;5004924;28;20201;-81
2023/09/28 08:47:58;;;;;;;16.53;5.23;;;;;;;;;;4995081;28;20197;-82
2023/09/28 08:50:28;;;;;;;21.53;5.63;;;;;;;;;;4995214;28;20209;-82
2023/09/28 08:52:54;;;;;;;23.63;5.93;;;;;;;;;;5006263;28;20248;-82
2023/09/28 08:55:21;;;;;;;24.97;5.43;;;;;;;;;;5014388;28;20255;-83
2023/09/28 08:57:48;;;;;;;23.47;5.60;;;;;;;;;;5006113;28;20268;-81
2023/09/28 09:00:14;;;;;;;19.80;4.83;;;;;;;;;;5001946;28;20193;-82
2023/09/28 09:02:44;;;;;;;23.77;5.53;;;;;;;;;;5015736;28;20177;-83
2023/09/28 09:05:13;;;;;;;21.07;5.23;;;;;;;;;;4984791;28;20194;-82
2023/09/28 09:07:42;;;;;;;22.83;5.70;;;;;;;;;;4978789;28;20281;-81
2023/09/28 09:10:12;;;;;;;17.53;5.07;;;;;;;;;;4995393;28;20205;-82
2023/09/28 09:12:38;;;;;;;21.20;5.33;;;;;;;;;;4994329;28;20253;-82
2023/09/28 09:15:07;;;;;;;19.10;5.13;;;;;;;;;;4978029;28;20190;-81
2023/09/28 09:17:33;;;;;;;16.93;5.53;;;;;;;;;;4978115;28;20221;-82
2023/09/28 09:19:59;;;;;;;19.10;5.30;;;;;;;;;;4978166;28;20420;-82
2023/09/28 09:22:27;;;;;;;21.70;6.13;;;;;;;;;;4978165;28;20511;-78
2023/09/28 09:25:00;;;;;;;18.17;5.18;;;;;;;;;;5014882;28;20177;-79
2023/09/28 09:27:29;;;;;;;20.73;5.25;;;;;;;;;;5014757;28;20192;-79
2023/09/28 09:29:59;;;;;;;17.73;5.18;;;;;;;;;;4997726;28;20295;-78
2023/09/28 09:32:26;;;;;;;21.85;5.72;;;;;;;;;;5007235;28;20189;-79
2023/09/28 09:34:52;;;;;;;15.68;4.90;;;;;;;;;;4993743;28;20200;-79
2023/09/28 09:37:19;;;;;;;16.23;5.22;;;;;;;;;;4977580;28;20413;-79
2023/09/28 09:39:45;;;;;;;19.60;5.60;;;;;;;;;;4977666;28;20424;-79
2023/09/28 09:42:11;;;;;;;20.00;5.73;;;;;;;;;;4993103;28;20408;-78
2023/09/28 09:44:38;;;;;;;18.38;5.53;;;;;;;;;;4976859;28;20428;-78
2023/09/28 09:47:04;;;;;;;18.52;5.25;;;;;;;;;;4993851;28;20177;-79
2023/09/28 09:49:30;;;;;;;20.73;5.18;;;;;;;;;;4994290;28;20518;-79
2023/09/28 09:51:57;;;;;;;18.70;5.82;;;;;;;;;;4983084;28;20636;-79
2023/09/28 09:54:24;;;;;;;16.33;4.95;;;;;;;;;;4993584;28;20184;-78
2023/09/28 09:56:50;;;;;;;17.52;5.10;;;;;;;;;;4993850;28;20236;-82
2023/09/28 09:59:17;;;;;;;20.38;5.88;;;;;;;;;;4993243;28;20436;-81
2023/09/28 10:01:48;;;;;;;17.73;4.97;;;;;;;;;;5010232;28;20186;-82
2023/09/28 10:04:16;;;;;;;19.20;5.03;;;;;;;;;;5009745;28;20241;-81
2023/09/28 10:06:45;;;;;;;17.90;4.50;;;;;;;;;;4993695;28;20180;-81
2023/09/28 10:09:13;;;;;;;18.30;4.95;;;;;;;;;;4988476;28;20288;-81
2023/09/28 10:11:40;;;;;;;16.30;5.38;;;;;;;;;;4998610;28;20522;-83
2023/09/28 10:14:08;;;;;;;17.30;5.28;;;;;;;;;;5011823;28;20211;-82
2023/09/28 10:16:34;;;;;;;24.25;5.35;;;;;;;;;;5000518;28;20185;-83
2023/09/28 10:19:01;;;;;;;20.38;5.70;;;;;;;;;;5000238;28;20482;-83
2023/09/28 10:21:27;;;;;;;11.65;4.35;;;;;;;;;;5033964;28;20187;-83
2023/09/28 10:23:55;;;;;;;18.30;5.40;;;;;;;;;;5012119;28;20433;-83
2023/09/28 10:26:22;;;;;;;18.95;5.40;;;;;;;;;;5012459;28;20469;-83
2023/09/28 10:29:03;;;;;;;20.55;5.53;;;;;;;;;;4996706;28;20485;-79
2023/09/28 10:31:29;;;;;;;18.23;5.40;;;;;;;;;;5013419;28;20418;-79
2023/09/28 10:34:05;;;;;;;19.77;5.00;;;;;;;;;;5013055;28;20174;-79
2023/09/28 10:36:32;;;;;;;16.00;5.28;;;;;;;;;;5013187;28;20211;-79
2023/09/28 10:39:13;;;;;;;19.52;5.53;;;;;;;;;;4996423;28;20426;-80
2023/09/28 10:41:40;;;;;;;20.57;5.70;;;;;;;;;;5012718;28;20445;-79
2023/09/28 10:44:13;;;;;;;20.67;5.97;;;;;;;;;;4996397;28;20419;-80
2023/09/28 10:46:40;;;;;;;21.58;5.90;;;;;;;;;;5006450;28;20429;-79
2023/09/28 10:49:06;;;;;;;18.80;5.88;;;;;;;;;;5000362;28;20454;-79
2023/09/28 10:51:32;;;;;;;17.67;5.75;;;;;;;;;;4978979;28;20782;-79
2023/09/28 10:53:58;;;;;;;20.30;5.72;;;;;;;;;;4995480;28;20514;-79
2023/09/28 10:56:24;;;;;;;17.70;5.53;;;;;;;;;;4995336;28;20418;-80
2023/09/28 10:58:50;;;;;;;22.25;6.00;;;;;;;;;;5017828;28;20421;-79
2023/09/28 11:01:16;;;;;;;18.00;5.40;;;;;;;;;;4984257;28;20474;-83
2023/09/28 11:03:43;;;;;;;22.58;5.80;;;;;;;;;;4999356;28;20435;-83
2023/09/28 11:06:09;;;;;;;18.63;5.40;;;;;;;;;;4999306;28;20411;-82
2023/09/28 11:08:36;;;;;;;20.42;5.32;;;;;;;;;;5015860;28;20489;-84
2023/09/28 11:11:03;;;;;;;20.40;5.97;;;;;;;;;;4998395;28;20411;-79
2023/09/28 11:13:29;;;;;;;18.58;5.50;;;;;;;;;;4999419;28;20403;-79
2023/09/28 11:15:55;;;;;;;21.70;5.90;;;;;;;;;;4998951;28;20462;-82
2023/09/28 11:18:21;;;;;;;21.35;5.65;;;;;;;;;;5016085;28;20462;-81
2023/09/28 11:20:47;;;;;;;19.10;5.85;;;;;;;;;;4998720;28;20476;-82
2023/09/28 11:23:14;;;;;;;25.88;5.85;;;;;;;;;;4983271;28;20493;-82
2023/09/28 11:25:41;;;;;;;20.13;5.53;;;;;;;;;;5000484;28;20399;-81
2023/09/28 11:28:07;;;;;;;19.02;5.72;;;;;;;;;;5016933;28;20415;-81
2023/09/28 11:30:34;;;;;;;16.85;4.97;;;;;;;;;;4998838;28;20251;-82
2023/09/28 11:33:02;;;;;;;18.97;5.20;;;;;;;;;;5016017;28;20452;-82
2023/09/28 11:35:31;;;;;;;20.48;5.25;;;;;;;;;;5036821;28;20195;-81
2023/09/28 11:38:09;;;;;;;23.85;5.85;;;;;;;;;;5018914;28;20409;-82
2023/09/28 11:40:36;;;;;;;19.13;5.20;;;;;;;;;;4994161;28;20177;-82
2023/09/28 11:43:02;;;;;;;24.63;5.80;;;;;;;;;;4995697;28;20552;-82
2023/09/28 11:45:29;;;;;;;19.90;5.50;;;;;;;;;;4995044;28;20412;-81
2023/09/28 11:47:55;;;;;;;19.48;5.60;;;;;;;;;;4995365;28;20412;-82
2023/09/28 11:50:23;;;;;;;20.75;5.32;;;;;;;;;;4987846;28;20443;-82
2023/09/28 11:52:50;;;;;;;21.05;5.53;;;;;;;;;;4999787;28;20173;-78
2023/09/28 11:55:16;;;;;;;20.55;5.65;;;;;;;;;;4982292;28;20430;-79
2023/09/28 11:57:46;;;;;;;19.47;5.83;;;;;;;;;;4982259;28;20510;-79
2023/09/28 12:00:19;;;;;;;21.87;6.33;;;;;;;;;;5014356;28;20423;-79
2023/09/28 12:02:46;;;;;;;20.48;5.38;;;;;;;;;;5014410;28;20422;-79
2023/09/28 12:05:13;;;;;;;22.45;6.07;;;;;;;;;;4998326;28;20414;-79
2023/09/28 12:07:40;;;;;;;21.20;5.88;;;;;;;;;;4998268;28;20481;-78
2023/09/28 12:10:07;;;;;;;21.27;6.05;;;;;;;;;;5015987;28;20545;-78
2023/09/28 12:12:33;;;;;;;21.08;6.15;;;;;;;;;;5051707;22;20496;-79
2023/09/28 12:14:59;;;;;;;19.33;5.53;;;;;;;;;;5003813;28;20549;-79
2023/09/28 12:17:25;;;;;;;21.83;6.10;;;;;;;;;;4998864;28;20415;-80
2023/09/28 12:19:51;;;;;;;20.70;5.95;;;;;;;;;;5016472;28;20409;-80
2023/09/28 12:22:18;;;;;;;20.02;5.97;;;;;;;;;;5017153;28;20417;-81
2023/09/28 12:24:44;;;;;;;21.20;6.18;;;;;;;;;;5017503;28;20432;-79
2023/09/28 12:27:12;;;;;;;19.00;5.60;;;;;;;;;;5017115;28;20401;-79
2023/09/28 12:29:38;;;;;;;19.90;5.18;;;;;;;;;;5013905;28;20448;-79
2023/09/28 12:32:04;;;;;;;22.20;5.88;;;;;;;;;;5000701;28;20418;-79
2023/09/28 12:34:30;;;;;;;21.85;5.60;;;;;;;;;;5033270;28;20432;-79
2023/09/28 12:36:57;;;;;;;20.70;5.55;;;;;;;;;;5000097;28;20426;-79
2023/09/28 12:39:24;;;;;;;19.73;5.43;;;;;;;;;;4993607;28;20419;-79
2023/09/28 12:41:50;;;;;;;19.88;5.60;;;;;;;;;;5007385;28;20434;-80
2023/09/28 12:44:17;;;;;;;21.17;5.60;;;;;;;;;;5010614;28;20520;-80
2023/09/28 12:46:44;;;;;;;18.87;5.40;;;;;;;;;;4996858;28;20459;-81
2023/09/28 12:49:10;;;;;;;20.05;5.53;;;;;;;;;;5000481;28;20524;-78
2023/09/28 12:51:36;;;;;;;17.65;4.88;;;;;;;;;;5018169;28;20192;-76
2023/09/28 12:54:02;;;;;;;20.65;5.57;;;;;;;;;;5013995;28;20431;-76
2023/09/28 12:56:29;;;;;;;21.45;5.47;;;;;;;;;;4990813;28;20433;-76
2023/09/28 12:58:55;;;;;;;19.02;5.30;;;;;;;;;;5017104;28;20445;-76
2023/09/28 13:01:22;;;;;;;18.13;5.18;;;;;;;;;;5017387;28;20457;-77
2023/09/28 13:03:51;;;;;;;20.15;5.25;;;;;;;;;;5000760;28;20492;-77
2023/09/28 13:06:17;;;;;;;20.52;5.72;;;;;;;;;;5032900;28;20434;-79
2023/09/28 13:08:43;;;;;;;19.30;5.33;;;;;;;;;;5016027;28;20486;-80
2023/09/28 13:11:10;;;;;;;16.98;5.03;;;;;;;;;;5012269;28;20533;-79
2023/09/28 13:13:39;;;;;;;19.58;5.30;;;;;;;;;;4997724;28;20444;-80
2023/09/28 13:16:05;;;;;;;18.55;5.43;;;;;;;;;;5015812;28;20420;-77
2023/09/28 13:18:33;;;;;;;19.42;5.65;;;;;;;;;;5016980;28;20409;-77
2023/09/28 13:21:00;;;;;;;19.25;5.18;;;;;;;;;;5015807;28;20424;-80
2023/09/28 13:23:26;;;;;;;21.40;5.45;;;;;;;;;;5016071;28;20466;-77
2023/09/28 13:25:52;;;;;;;18.58;5.30;;;;;;;;;;5016225;28;20409;-77
2023/09/28 13:28:18;;;;;;;18.20;4.45;;;;;;;;;;5016699;28;20271;-77
2023/09/28 13:30:47;;;;;;;20.17;5.30;;;;;;;;;;5011756;28;20436;-80
2023/09/28 13:33:14;;;;;;;19.88;5.13;;;;;;;;;;5017804;28;20169;-80
2023/09/28 13:35:43;;;;;;;16.42;5.00;;;;;;;;;;5016430;28;20192;-80
2023/09/28 13:38:09;;;;;;;19.02;5.00;;;;;;;;;;5000804;28;20418;-80
2023/09/28 13:40:35;;;;;;;17.65;4.63;;;;;;;;;;5001097;28;20185;-80
2023/09/28 13:43:06;;;;;;;17.17;4.50;;;;;;;;;;5016659;28;20180;-80
2023/09/28 13:45:33;;;;;;;11.52;4.15;;;;;;;;;;5020270;28;20181;-79
2023/09/28 13:47:59;;;;;;;14.27;5.10;;;;;;;;;;5013466;28;20478;-79
2023/09/28 13:50:28;;;;;;;14.57;4.45;;;;;;;;;;5031653;28;20204;-79
2023/09/28 13:52:55;;;;;;;16.90;4.82;;;;;;;;;;5017315;28;20417;-79
2023/09/28 13:55:21;;;;;;;18.80;5.20;;;;;;;;;;4999338;28;20405;-78
2023/09/28 13:57:48;;;;;;;17.20;4.75;;;;;;;;;;5016732;28;20188;-78
2023/09/28 14:00:28;;;;;;;15.40;4.47;;;;;;;;;;5014973;28;20252;-79
2023/09/28 14:02:57;;;;;;;15.27;4.60;;;;;;;;;;5016212;28;20417;-78
2023/09/28 14:05:24;;;;;;;16.83;4.67;;;;;;;;;;5000236;28;20418;-78
2023/09/28 14:07:51;;;;;;;14.40;4.55;;;;;;;;;;5015993;28;20410;-79
2023/09/28 14:10:19;;;;;;;13.90;4.55;;;;;;;;;;5030977;28;20433;-80
2023/09/28 14:12:45;;;;;;;15.38;4.47;;;;;;;;;;5032395;28;20430;-80
2023/09/28 14:15:11;;;;;;;15.67;4.53;;;;;;;;;;5015697;28;20489;-80
2023/09/28 14:17:38;;;;;;;14.10;4.22;;;;;;;;;;4999065;28;20417;-81
2023/09/28 14:20:07;;;;;;;18.73;4.70;;;;;;;;;;5015201;28;20429;-81
2023/09/28 14:22:36;;;;;;;14.27;4.55;;;;;;;;;;5006187;28;20191;-76
2023/09/28 14:25:05;;;;;;;17.63;4.20;;;;;;;;;;5013812;28;20185;-76
2023/09/28 14:27:35;;;;;;;15.20;4.40;;;;;;;;;;5016618;28;20215;-76
2023/09/28 14:30:01;;;;;;;14.43;4.20;;;;;;;;;;5015250;28;20208;-76
2023/09/28 14:32:28;;;;;;;16.88;4.50;;;;;;;;;;5000185;28;20250;-76
2023/09/28 14:34:54;;;;;;;9.73;3.78;;;;;;;;;;5004162;28;20176;-76